sensor_id;sensor_type;location;lat;lon;timestamp;temperature;humidity
25280;DHT22;13225;47.804;12.116;2022-08-14T00:00:12;16.50;99.90
25280;DHT22;13225;47.804;12.116;2022-08-14T00:02:39;16.50;99.90
25280;DHT22;13225;47.804;12.116;2022-08-14T00:05:08;16.60;99.90
25280;DHT22;13225;47.804;12.116;2022-08-14T00:07:34;16.60;99.90
25280;DHT22;13225;47.804;12.116;2022-08-14T00:10:01;16.60;99.90
25280;DHT22;13225;47.804;12.116;2022-08-14T00:12:27;16.50;99.90
25280;DHT22;13225;47.804;12.116;2022-08-14T00:14:53;16.50;99.90
25280;DHT22;13225;47.804;12.116;2022-08-14T00:17:19;16.40;99.90
25280;DHT22;13225;47.804;12.116;2022-08-14T00:19:44;16.30;99.90
25280;DHT22;13225;47.804;12.116;2022-08-14T00:22:10;16.30;99.90
25280;DHT22;13225;47.804;12.116;2022-08-14T00:24:39;16.20;99.90
25280;DHT22;13225;47.804;12.116;2022-08-14T00:27:05;16.30;99.90
25280;DHT22;13225;47.804;12.116;2022-08-14T00:29:31;16.20;99.90
25280;DHT22;13225;47.804;12.116;2022-08-14T00:31:57;16.30;99.90
25280;DHT22;13225;47.804;12.116;2022-08-14T00:34:23;16.40;99.90
25280;DHT22;13225;47.804;12.116;2022-08-14T00:36:49;16.40;99.90
25280;DHT22;13225;47.804;12.116;2022-08-14T00:39:15;16.30;99.90
25280;DHT22;13225;47.804;12.116;2022-08-14T00:41:42;16.30;99.90
25280;DHT22;13225;47.804;12.116;2022-08-14T00:44:07;16.30;99.90
25280;DHT22;13225;47.804;12.116;2022-08-14T00:46:35;16.20;99.90
25280;DHT22;13225;47.804;12.116;2022-08-14T00:49:00;16.20;99.90
25280;DHT22;13225;47.804;12.116;2022-08-14T00:51:26;16.10;99.90
25280;DHT22;13225;47.804;12.116;2022-08-14T00:53:54;15.90;99.90
25280;DHT22;13225;47.804;12.116;2022-08-14T00:56:19;15.70;99.90
25280;DHT22;13225;47.804;12.116;2022-08-14T00:58:45;15.60;99.90
25280;DHT22;13225;47.804;12.116;2022-08-14T01:01:11;15.50;99.90
25280;DHT22;13225;47.804;12.116;2022-08-14T01:03:40;15.50;99.90
25280;DHT22;13225;47.804;12.116;2022-08-14T01:06:07;15.60;99.90
25280;DHT22;13225;47.804;12.116;2022-08-14T01:08:35;15.70;99.90
25280;DHT22;13225;47.804;12.116;2022-08-14T01:11:03;15.90;99.90
25280;DHT22;13225;47.804;12.116;2022-08-14T01:13:39;16.00;99.90
25280;DHT22;13225;47.804;12.116;2022-08-14T01:16:08;16.00;99.90
25280;DHT22;13225;47.804;12.116;2022-08-14T01:18:34;16.00;99.90
25280;DHT22;13225;47.804;12.116;2022-08-14T01:21:39;16.00;99.90
25280;DHT22;13225;47.804;12.116;2022-08-14T01:24:06;16.00;99.90
25280;DHT22;13225;47.804;12.116;2022-08-14T01:26:33;16.00;99.90
25280;DHT22;13225;47.804;12.116;2022-08-14T01:29:04;16.00;99.90
25280;DHT22;13225;47.804;12.116;2022-08-14T01:31:33;15.90;99.90
25280;DHT22;13225;47.804;12.116;2022-08-14T01:34:02;15.90;99.90
25280;DHT22;13225;47.804;12.116;2022-08-14T01:36:29;15.80;99.90
25280;DHT22;13225;47.804;12.116;2022-08-14T01:39:12;15.70;99.90
25280;DHT22;13225;47.804;12.116;2022-08-14T01:41:38;15.60;99.90
25280;DHT22;13225;47.804;12.116;2022-08-14T01:44:08;15.70;99.90
25280;DHT22;13225;47.804;12.116;2022-08-14T01:46:38;15.70;99.90
25280;DHT22;13225;47.804;12.116;2022-08-14T01:49:10;15.70;99.90
25280;DHT22;13225;47.804;12.116;2022-08-14T01:51:37;15.70;99.90
25280;DHT22;13225;47.804;12.116;2022-08-14T01:54:07;15.60;99.90
25280;DHT22;13225;47.804;12.116;2022-08-14T01:56:34;15.60;99.90
25280;DHT22;13225;47.804;12.116;2022-08-14T02:01:31;15.70;99.90
25280;DHT22;13225;47.804;12.116;2022-08-14T02:03:57;15.70;99.90
25280;DHT22;13225;47.804;12.116;2022-08-14T02:06:24;15.70;99.90
25280;DHT22;13225;47.804;12.116;2022-08-14T02:08:52;15.70;99.90
25280;DHT22;13225;47.804;12.116;2022-08-14T02:11:18;15.70;99.90
25280;DHT22;13225;47.804;12.116;2022-08-14T02:14:02;15.60;99.90
25280;DHT22;13225;47.804;12.116;2022-08-14T02:16:31;15.70;99.90
25280;DHT22;13225;47.804;12.116;2022-08-14T02:19:04;15.70;99.90
25280;DHT22;13225;47.804;12.116;2022-08-14T02:21:31;15.70;99.90
25280;DHT22;13225;47.804;12.116;2022-08-14T02:23:59;15.70;99.90
25280;DHT22;13225;47.804;12.116;2022-08-14T02:26:31;15.60;99.90
25280;DHT22;13225;47.804;12.116;2022-08-14T02:29:02;15.60;99.90
25280;DHT22;13225;47.804;12.116;2022-08-14T02:31:30;15.40;99.90
25280;DHT22;13225;47.804;12.116;2022-08-14T02:34:09;15.20;99.90
25280;DHT22;13225;47.804;12.116;2022-08-14T02:36:37;14.80;99.90
25280;DHT22;13225;47.804;12.116;2022-08-14T02:39:08;14.90;99.90
25280;DHT22;13225;47.804;12.116;2022-08-14T02:41:36;14.80;99.90
25280;DHT22;13225;47.804;12.116;2022-08-14T02:44:04;14.80;99.90
25280;DHT22;13225;47.804;12.116;2022-08-14T02:46:30;14.80;99.90
25280;DHT22;13225;47.804;12.116;2022-08-14T02:48:57;15.10;99.90
25280;DHT22;13225;47.804;12.116;2022-08-14T02:51:23;15.20;99.90
25280;DHT22;13225;47.804;12.116;2022-08-14T02:53:48;15.30;99.90
25280;DHT22;13225;47.804;12.116;2022-08-14T02:56:16;15.40;99.90
25280;DHT22;13225;47.804;12.116;2022-08-14T02:58:45;15.50;99.90
25280;DHT22;13225;47.804;12.116;2022-08-14T03:01:13;15.40;99.90
25280;DHT22;13225;47.804;12.116;2022-08-14T03:03:40;15.30;99.90
25280;DHT22;13225;47.804;12.116;2022-08-14T03:06:07;15.30;99.90
25280;DHT22;13225;47.804;12.116;2022-08-14T03:08:37;15.30;99.90
25280;DHT22;13225;47.804;12.116;2022-08-14T03:11:05;15.30;99.90
25280;DHT22;13225;47.804;12.116;2022-08-14T03:13:32;15.30;99.90
25280;DHT22;13225;47.804;12.116;2022-08-14T03:16:01;15.30;99.90
25280;DHT22;13225;47.804;12.116;2022-08-14T03:18:27;15.30;99.90
25280;DHT22;13225;47.804;12.116;2022-08-14T03:20:53;15.30;99.90
25280;DHT22;13225;47.804;12.116;2022-08-14T03:23:19;15.30;99.90
25280;DHT22;13225;47.804;12.116;2022-08-14T03:25:45;15.20;99.90
25280;DHT22;13225;47.804;12.116;2022-08-14T03:28:12;15.20;99.90
25280;DHT22;13225;47.804;12.116;2022-08-14T03:30:38;15.10;99.90
25280;DHT22;13225;47.804;12.116;2022-08-14T03:33:05;15.00;99.90
25280;DHT22;13225;47.804;12.116;2022-08-14T03:35:32;14.80;99.90
25280;DHT22;13225;47.804;12.116;2022-08-14T03:38:06;14.60;99.90
25280;DHT22;13225;47.804;12.116;2022-08-14T03:40:34;14.60;99.90
25280;DHT22;13225;47.804;12.116;2022-08-14T03:43:03;14.60;99.90
25280;DHT22;13225;47.804;12.116;2022-08-14T03:45:31;14.50;99.90
25280;DHT22;13225;47.804;12.116;2022-08-14T03:47:58;14.30;99.90
25280;DHT22;13225;47.804;12.116;2022-08-14T03:50:26;14.30;99.90
25280;DHT22;13225;47.804;12.116;2022-08-14T03:52:53;14.30;99.90
25280;DHT22;13225;47.804;12.116;2022-08-14T03:55:18;14.20;99.90
25280;DHT22;13225;47.804;12.116;2022-08-14T03:57:44;14.20;99.90
25280;DHT22;13225;47.804;12.116;2022-08-14T04:00:11;14.20;99.90
25280;DHT22;13225;47.804;12.116;2022-08-14T04:02:39;14.10;99.90
25280;DHT22;13225;47.804;12.116;2022-08-14T04:05:07;14.20;99.90
25280;DHT22;13225;47.804;12.116;2022-08-14T04:07:33;14.30;99.90
25280;DHT22;13225;47.804;12.116;2022-08-14T04:10:00;14.30;99.90
25280;DHT22;13225;47.804;12.116;2022-08-14T04:12:26;14.40;99.90
25280;DHT22;13225;47.804;12.116;2022-08-14T04:14:51;14.40;99.90
25280;DHT22;13225;47.804;12.116;2022-08-14T04:17:18;14.40;99.90
25280;DHT22;13225;47.804;12.116;2022-08-14T04:19:45;14.50;99.90
25280;DHT22;13225;47.804;12.116;2022-08-14T04:22:11;14.60;99.90
25280;DHT22;13225;47.804;12.116;2022-08-14T04:24:38;14.60;99.90
25280;DHT22;13225;47.804;12.116;2022-08-14T04:27:09;14.70;99.90
25280;DHT22;13225;47.804;12.116;2022-08-14T04:29:42;14.70;99.90
25280;DHT22;13225;47.804;12.116;2022-08-14T04:32:08;14.70;99.90
25280;DHT22;13225;47.804;12.116;2022-08-14T04:34:37;14.70;99.90
25280;DHT22;13225;47.804;12.116;2022-08-14T04:37:07;14.80;99.90
25280;DHT22;13225;47.804;12.116;2022-08-14T04:39:53;14.80;99.90
25280;DHT22;13225;47.804;12.116;2022-08-14T04:42:38;15.00;99.90
25280;DHT22;13225;47.804;12.116;2022-08-14T04:45:23;15.40;99.90
25280;DHT22;13225;47.804;12.116;2022-08-14T04:47:51;15.90;99.90
25280;DHT22;13225;47.804;12.116;2022-08-14T04:50:36;16.50;99.90
25280;DHT22;13225;47.804;12.116;2022-08-14T04:53:02;16.70;99.90
25280;DHT22;13225;47.804;12.116;2022-08-14T04:55:28;17.00;99.90
25280;DHT22;13225;47.804;12.116;2022-08-14T04:57:55;16.90;99.90
25280;DHT22;13225;47.804;12.116;2022-08-14T05:00:21;16.60;99.90
25280;DHT22;13225;47.804;12.116;2022-08-14T05:02:48;16.50;99.90
25280;DHT22;13225;47.804;12.116;2022-08-14T05:05:14;16.70;99.90
25280;DHT22;13225;47.804;12.116;2022-08-14T05:07:40;17.20;99.90
25280;DHT22;13225;47.804;12.116;2022-08-14T05:10:07;17.50;99.90
25280;DHT22;13225;47.804;12.116;2022-08-14T05:12:33;17.70;99.90
25280;DHT22;13225;47.804;12.116;2022-08-14T05:14:58;17.90;99.90
25280;DHT22;13225;47.804;12.116;2022-08-14T05:17:24;18.10;99.90
25280;DHT22;13225;47.804;12.116;2022-08-14T05:19:51;17.60;99.90
25280;DHT22;13225;47.804;12.116;2022-08-14T05:22:18;17.90;99.90
25280;DHT22;13225;47.804;12.116;2022-08-14T05:24:47;17.80;99.90
25280;DHT22;13225;47.804;12.116;2022-08-14T05:27:14;17.50;99.90
25280;DHT22;13225;47.804;12.116;2022-08-14T05:29:39;16.80;99.90
25280;DHT22;13225;47.804;12.116;2022-08-14T05:32:09;16.60;99.90
25280;DHT22;13225;47.804;12.116;2022-08-14T05:34:35;16.50;99.90
25280;DHT22;13225;47.804;12.116;2022-08-14T05:37:01;16.40;99.90
25280;DHT22;13225;47.804;12.116;2022-08-14T05:39:27;16.20;99.90
25280;DHT22;13225;47.804;12.116;2022-08-14T05:41:53;16.20;99.90
25280;DHT22;13225;47.804;12.116;2022-08-14T05:44:19;16.30;99.90
25280;DHT22;13225;47.804;12.116;2022-08-14T05:46:45;16.30;99.90
25280;DHT22;13225;47.804;12.116;2022-08-14T05:49:11;16.50;99.90
25280;DHT22;13225;47.804;12.116;2022-08-14T05:51:38;16.50;99.90
25280;DHT22;13225;47.804;12.116;2022-08-14T05:54:04;16.50;99.90
25280;DHT22;13225;47.804;12.116;2022-08-14T05:56:29;16.70;99.90
25280;DHT22;13225;47.804;12.116;2022-08-14T05:58:55;16.80;99.90
25280;DHT22;13225;47.804;12.116;2022-08-14T06:01:21;16.90;99.90
25280;DHT22;13225;47.804;12.116;2022-08-14T06:03:47;17.10;99.90
25280;DHT22;13225;47.804;12.116;2022-08-14T06:06:13;17.20;99.90
25280;DHT22;13225;47.804;12.116;2022-08-14T06:08:38;17.30;99.90
25280;DHT22;13225;47.804;12.116;2022-08-14T06:11:05;17.30;99.90
25280;DHT22;13225;47.804;12.116;2022-08-14T06:13:33;17.40;99.90
25280;DHT22;13225;47.804;12.116;2022-08-14T06:15:59;17.50;99.90
25280;DHT22;13225;47.804;12.116;2022-08-14T06:18:25;17.60;99.90
25280;DHT22;13225;47.804;12.116;2022-08-14T06:20:51;17.70;99.90
25280;DHT22;13225;47.804;12.116;2022-08-14T06:23:19;17.80;99.90
25280;DHT22;13225;47.804;12.116;2022-08-14T06:25:45;17.90;99.90
25280;DHT22;13225;47.804;12.116;2022-08-14T06:28:18;18.00;99.90
25280;DHT22;13225;47.804;12.116;2022-08-14T06:30:44;18.10;99.90
25280;DHT22;13225;47.804;12.116;2022-08-14T06:33:10;18.00;99.90
25280;DHT22;13225;47.804;12.116;2022-08-14T06:35:36;18.00;99.90
25280;DHT22;13225;47.804;12.116;2022-08-14T06:38:02;18.20;99.90
25280;DHT22;13225;47.804;12.116;2022-08-14T06:40:30;18.30;99.90
25280;DHT22;13225;47.804;12.116;2022-08-14T06:42:58;18.40;99.90
25280;DHT22;13225;47.804;12.116;2022-08-14T06:45:25;18.50;99.90
25280;DHT22;13225;47.804;12.116;2022-08-14T06:47:51;18.70;99.90
25280;DHT22;13225;47.804;12.116;2022-08-14T06:50:20;18.70;99.90
25280;DHT22;13225;47.804;12.116;2022-08-14T06:52:47;18.80;99.90
25280;DHT22;13225;47.804;12.116;2022-08-14T06:55:14;18.90;99.90
25280;DHT22;13225;47.804;12.116;2022-08-14T06:57:45;19.00;99.90
25280;DHT22;13225;47.804;12.116;2022-08-14T07:00:17;19.10;99.90
25280;DHT22;13225;47.804;12.116;2022-08-14T07:02:43;19.20;99.90
25280;DHT22;13225;47.804;12.116;2022-08-14T07:05:28;19.30;99.90
25280;DHT22;13225;47.804;12.116;2022-08-14T07:08:21;19.30;99.90
25280;DHT22;13225;47.804;12.116;2022-08-14T07:10:52;19.40;99.90
25280;DHT22;13225;47.804;12.116;2022-08-14T07:13:19;19.40;99.90
25280;DHT22;13225;47.804;12.116;2022-08-14T07:15:47;19.40;99.90
25280;DHT22;13225;47.804;12.116;2022-08-14T07:18:25;19.60;99.90
25280;DHT22;13225;47.804;12.116;2022-08-14T07:20:51;19.80;99.90
25280;DHT22;13225;47.804;12.116;2022-08-14T07:23:18;19.80;99.90
25280;DHT22;13225;47.804;12.116;2022-08-14T07:25:45;19.80;99.90
25280;DHT22;13225;47.804;12.116;2022-08-14T07:28:26;19.90;99.90
25280;DHT22;13225;47.804;12.116;2022-08-14T07:30:54;19.90;99.90
25280;DHT22;13225;47.804;12.116;2022-08-14T07:33:24;19.90;99.90
25280;DHT22;13225;47.804;12.116;2022-08-14T07:35:50;20.00;99.90
25280;DHT22;13225;47.804;12.116;2022-08-14T07:38:18;20.10;99.90
25280;DHT22;13225;47.804;12.116;2022-08-14T07:40:45;20.20;99.90
25280;DHT22;13225;47.804;12.116;2022-08-14T07:43:11;20.30;99.90
25280;DHT22;13225;47.804;12.116;2022-08-14T07:45:38;20.30;99.90
25280;DHT22;13225;47.804;12.116;2022-08-14T07:48:05;20.30;99.90
25280;DHT22;13225;47.804;12.116;2022-08-14T07:50:31;20.30;99.90
25280;DHT22;13225;47.804;12.116;2022-08-14T07:52:58;20.50;99.90
25280;DHT22;13225;47.804;12.116;2022-08-14T07:55:24;20.50;99.90
25280;DHT22;13225;47.804;12.116;2022-08-14T07:57:50;20.60;99.90
25280;DHT22;13225;47.804;12.116;2022-08-14T08:00:19;20.60;99.90
25280;DHT22;13225;47.804;12.116;2022-08-14T08:02:48;20.70;99.90
25280;DHT22;13225;47.804;12.116;2022-08-14T08:05:15;20.80;99.90
25280;DHT22;13225;47.804;12.116;2022-08-14T08:07:42;20.70;99.90
25280;DHT22;13225;47.804;12.116;2022-08-14T08:10:10;20.90;99.90
25280;DHT22;13225;47.804;12.116;2022-08-14T08:12:59;21.00;99.90
25280;DHT22;13225;47.804;12.116;2022-08-14T08:15:27;21.30;99.90
25280;DHT22;13225;47.804;12.116;2022-08-14T08:17:54;21.30;99.90
25280;DHT22;13225;47.804;12.116;2022-08-14T08:20:22;21.40;99.90
25280;DHT22;13225;47.804;12.116;2022-08-14T08:22:54;21.60;99.90
25280;DHT22;13225;47.804;12.116;2022-08-14T08:25:22;21.60;99.90
25280;DHT22;13225;47.804;12.116;2022-08-14T08:28:13;21.60;99.90
25280;DHT22;13225;47.804;12.116;2022-08-14T08:30:42;21.60;99.90
25280;DHT22;13225;47.804;12.116;2022-08-14T08:33:09;21.60;99.90
25280;DHT22;13225;47.804;12.116;2022-08-14T08:35:36;21.70;99.90
25280;DHT22;13225;47.804;12.116;2022-08-14T08:38:08;21.70;99.90
25280;DHT22;13225;47.804;12.116;2022-08-14T08:40:37;21.90;99.90
25280;DHT22;13225;47.804;12.116;2022-08-14T08:43:06;22.00;99.90
25280;DHT22;13225;47.804;12.116;2022-08-14T08:45:33;22.20;99.90
25280;DHT22;13225;47.804;12.116;2022-08-14T08:48:00;22.40;99.90
25280;DHT22;13225;47.804;12.116;2022-08-14T08:50:30;22.50;99.90
25280;DHT22;13225;47.804;12.116;2022-08-14T08:52:59;22.20;99.90
25280;DHT22;13225;47.804;12.116;2022-08-14T08:55:40;22.00;99.90
25280;DHT22;13225;47.804;12.116;2022-08-14T08:58:08;22.40;99.90
25280;DHT22;13225;47.804;12.116;2022-08-14T09:00:36;22.60;99.90
25280;DHT22;13225;47.804;12.116;2022-08-14T09:03:08;22.80;99.90
25280;DHT22;13225;47.804;12.116;2022-08-14T09:05:36;23.00;99.90
25280;DHT22;13225;47.804;12.116;2022-08-14T09:08:13;23.20;99.90
25280;DHT22;13225;47.804;12.116;2022-08-14T09:10:40;23.40;99.90
25280;DHT22;13225;47.804;12.116;2022-08-14T09:13:06;23.60;99.90
25280;DHT22;13225;47.804;12.116;2022-08-14T09:15:32;23.40;99.90
25280;DHT22;13225;47.804;12.116;2022-08-14T09:17:58;23.50;99.90
25280;DHT22;13225;47.804;12.116;2022-08-14T09:20:24;23.60;99.90
25280;DHT22;13225;47.804;12.116;2022-08-14T09:22:50;23.70;99.90
25280;DHT22;13225;47.804;12.116;2022-08-14T09:25:17;23.70;99.90
25280;DHT22;13225;47.804;12.116;2022-08-14T09:27:43;23.60;99.90
25280;DHT22;13225;47.804;12.116;2022-08-14T09:30:10;23.60;99.90
25280;DHT22;13225;47.804;12.116;2022-08-14T09:39:03;23.90;99.90
25280;DHT22;13225;47.804;12.116;2022-08-14T09:41:56;24.00;99.90
25280;DHT22;13225;47.804;12.116;2022-08-14T09:44:29;24.10;99.90
25280;DHT22;13225;47.804;12.116;2022-08-14T09:46:57;24.20;99.90
25280;DHT22;13225;47.804;12.116;2022-08-14T09:49:38;24.10;99.90
25280;DHT22;13225;47.804;12.116;2022-08-14T09:52:13;24.20;99.90
25280;DHT22;13225;47.804;12.116;2022-08-14T09:54:48;23.90;99.90
25280;DHT22;13225;47.804;12.116;2022-08-14T09:57:26;24.10;99.90
25280;DHT22;13225;47.804;12.116;2022-08-14T09:59:53;24.40;99.90
25280;DHT22;13225;47.804;12.116;2022-08-14T10:02:26;24.60;99.90
25280;DHT22;13225;47.804;12.116;2022-08-14T10:05:04;24.70;99.90
25280;DHT22;13225;47.804;12.116;2022-08-14T10:07:48;24.70;99.90
25280;DHT22;13225;47.804;12.116;2022-08-14T10:10:37;24.90;99.90
25280;DHT22;13225;47.804;12.116;2022-08-14T10:13:19;25.00;99.90
25280;DHT22;13225;47.804;12.116;2022-08-14T10:15:46;25.30;99.90
25280;DHT22;13225;47.804;12.116;2022-08-14T10:18:15;25.60;99.90
25280;DHT22;13225;47.804;12.116;2022-08-14T10:20:55;25.80;99.90
25280;DHT22;13225;47.804;12.116;2022-08-14T10:23:27;25.80;99.90
25280;DHT22;13225;47.804;12.116;2022-08-14T10:26:05;25.80;99.90
25280;DHT22;13225;47.804;12.116;2022-08-14T10:28:43;26.00;99.90
25280;DHT22;13225;47.804;12.116;2022-08-14T10:33:42;26.00;98.90
25280;DHT22;13225;47.804;12.116;2022-08-14T10:36:09;26.10;96.20
25280;DHT22;13225;47.804;12.116;2022-08-14T10:38:35;26.20;96.60
25280;DHT22;13225;47.804;12.116;2022-08-14T10:41:15;26.40;95.50
25280;DHT22;13225;47.804;12.116;2022-08-14T10:43:42;26.40;94.50
25280;DHT22;13225;47.804;12.116;2022-08-14T10:46:16;26.60;94.50
25280;DHT22;13225;47.804;12.116;2022-08-14T10:49:02;26.70;94.00
25280;DHT22;13225;47.804;12.116;2022-08-14T10:51:29;26.70;94.10
25280;DHT22;13225;47.804;12.116;2022-08-14T10:53:56;26.70;93.80
25280;DHT22;13225;47.804;12.116;2022-08-14T10:56:31;26.80;94.50
25280;DHT22;13225;47.804;12.116;2022-08-14T10:59:06;27.00;93.80
25280;DHT22;13225;47.804;12.116;2022-08-14T11:01:34;27.20;93.80
25280;DHT22;13225;47.804;12.116;2022-08-14T11:04:01;27.30;93.10
25280;DHT22;13225;47.804;12.116;2022-08-14T11:06:27;27.40;92.60
25280;DHT22;13225;47.804;12.116;2022-08-14T11:08:56;27.50;91.90
25280;DHT22;13225;47.804;12.116;2022-08-14T11:11:23;27.60;91.50
25280;DHT22;13225;47.804;12.116;2022-08-14T11:13:54;27.70;91.80
25280;DHT22;13225;47.804;12.116;2022-08-14T11:16:23;27.70;90.50
25280;DHT22;13225;47.804;12.116;2022-08-14T11:18:49;27.80;90.30
25280;DHT22;13225;47.804;12.116;2022-08-14T11:21:17;28.00;90.00
25280;DHT22;13225;47.804;12.116;2022-08-14T11:23:46;28.00;89.40
25280;DHT22;13225;47.804;12.116;2022-08-14T11:26:15;28.10;87.30
25280;DHT22;13225;47.804;12.116;2022-08-14T11:28:46;28.20;88.60
25280;DHT22;13225;47.804;12.116;2022-08-14T11:31:13;28.30;84.80
25280;DHT22;13225;47.804;12.116;2022-08-14T11:33:40;28.40;85.60
25280;DHT22;13225;47.804;12.116;2022-08-14T11:36:08;28.40;84.50
25280;DHT22;13225;47.804;12.116;2022-08-14T11:38:43;28.40;85.00
25280;DHT22;13225;47.804;12.116;2022-08-14T11:41:11;28.50;82.40
25280;DHT22;13225;47.804;12.116;2022-08-14T11:43:40;28.50;83.20
25280;DHT22;13225;47.804;12.116;2022-08-14T11:46:07;28.50;84.10
25280;DHT22;13225;47.804;12.116;2022-08-14T11:48:51;28.60;83.10
25280;DHT22;13225;47.804;12.116;2022-08-14T11:51:22;28.80;85.20
25280;DHT22;13225;47.804;12.116;2022-08-14T11:53:53;29.00;83.40
25280;DHT22;13225;47.804;12.116;2022-08-14T11:56:19;29.20;82.70
25280;DHT22;13225;47.804;12.116;2022-08-14T11:58:52;29.40;83.30
25280;DHT22;13225;47.804;12.116;2022-08-14T12:01:28;29.50;79.90
25280;DHT22;13225;47.804;12.116;2022-08-14T12:04:09;29.50;79.80
25280;DHT22;13225;47.804;12.116;2022-08-14T12:06:44;29.40;78.50
25280;DHT22;13225;47.804;12.116;2022-08-14T12:09:14;29.60;80.40
25280;DHT22;13225;47.804;12.116;2022-08-14T12:11:41;29.70;78.70
25280;DHT22;13225;47.804;12.116;2022-08-14T12:14:08;29.70;78.90
25280;DHT22;13225;47.804;12.116;2022-08-14T12:16:36;29.60;77.50
25280;DHT22;13225;47.804;12.116;2022-08-14T12:19:02;29.80;78.80
25280;DHT22;13225;47.804;12.116;2022-08-14T12:21:28;29.90;76.80
25280;DHT22;13225;47.804;12.116;2022-08-14T12:24:08;30.10;76.00
25280;DHT22;13225;47.804;12.116;2022-08-14T12:26:34;30.60;76.20
25280;DHT22;13225;47.804;12.116;2022-08-14T12:29:14;31.30;75.40
25280;DHT22;13225;47.804;12.116;2022-08-14T12:31:41;31.90;73.00
25280;DHT22;13225;47.804;12.116;2022-08-14T12:34:10;32.30;70.90
25280;DHT22;13225;47.804;12.116;2022-08-14T12:36:36;32.90;68.90
25280;DHT22;13225;47.804;12.116;2022-08-14T12:41:51;33.40;67.40
25280;DHT22;13225;47.804;12.116;2022-08-14T12:44:28;33.80;67.00
25280;DHT22;13225;47.804;12.116;2022-08-14T12:47:08;34.30;63.90
25280;DHT22;13225;47.804;12.116;2022-08-14T12:49:37;34.20;62.20
25280;DHT22;13225;47.804;12.116;2022-08-14T12:52:04;34.20;64.00
25280;DHT22;13225;47.804;12.116;2022-08-14T12:54:32;34.30;60.60
25280;DHT22;13225;47.804;12.116;2022-08-14T12:57:05;34.20;61.60
25280;DHT22;13225;47.804;12.116;2022-08-14T12:59:32;34.50;61.80
25280;DHT22;13225;47.804;12.116;2022-08-14T13:01:58;34.60;60.50
25280;DHT22;13225;47.804;12.116;2022-08-14T13:04:24;34.50;59.50
25280;DHT22;13225;47.804;12.116;2022-08-14T13:07:00;34.30;58.70
25280;DHT22;13225;47.804;12.116;2022-08-14T13:09:29;33.90;59.30
25280;DHT22;13225;47.804;12.116;2022-08-14T13:11:56;33.70;58.80
25280;DHT22;13225;47.804;12.116;2022-08-14T13:14:23;33.70;59.20
25280;DHT22;13225;47.804;12.116;2022-08-14T13:16:54;34.10;58.70
25280;DHT22;13225;47.804;12.116;2022-08-14T13:19:20;34.30;58.20
25280;DHT22;13225;47.804;12.116;2022-08-14T13:21:48;34.60;58.30
25280;DHT22;13225;47.804;12.116;2022-08-14T13:24:18;34.70;56.40
25280;DHT22;13225;47.804;12.116;2022-08-14T13:26:51;34.50;58.30
25280;DHT22;13225;47.804;12.116;2022-08-14T13:29:19;34.30;56.00
25280;DHT22;13225;47.804;12.116;2022-08-14T13:31:51;34.00;56.70
25280;DHT22;13225;47.804;12.116;2022-08-14T13:34:26;33.90;58.40
25280;DHT22;13225;47.804;12.116;2022-08-14T13:36:52;34.70;57.50
25280;DHT22;13225;47.804;12.116;2022-08-14T13:39:20;35.00;56.60
25280;DHT22;13225;47.804;12.116;2022-08-14T13:41:47;34.90;55.80
25280;DHT22;13225;47.804;12.116;2022-08-14T13:44:16;34.90;56.00
25280;DHT22;13225;47.804;12.116;2022-08-14T13:46:45;35.10;55.10
25280;DHT22;13225;47.804;12.116;2022-08-14T13:49:12;35.10;55.50
25280;DHT22;13225;47.804;12.116;2022-08-14T13:51:40;35.10;55.20
25280;DHT22;13225;47.804;12.116;2022-08-14T13:54:08;35.00;53.90
25280;DHT22;13225;47.804;12.116;2022-08-14T13:56:38;34.90;54.60
25280;DHT22;13225;47.804;12.116;2022-08-14T13:59:04;34.80;54.90
25280;DHT22;13225;47.804;12.116;2022-08-14T14:01:31;34.70;55.20
25280;DHT22;13225;47.804;12.116;2022-08-14T14:04:02;35.00;54.40
25280;DHT22;13225;47.804;12.116;2022-08-14T14:06:29;35.00;53.30
25280;DHT22;13225;47.804;12.116;2022-08-14T14:08:56;34.70;53.40
25280;DHT22;13225;47.804;12.116;2022-08-14T14:11:22;35.10;52.50
25280;DHT22;13225;47.804;12.116;2022-08-14T14:13:54;35.60;51.40
25280;DHT22;13225;47.804;12.116;2022-08-14T14:16:21;35.50;51.90
25280;DHT22;13225;47.804;12.116;2022-08-14T14:18:49;35.50;51.30
25280;DHT22;13225;47.804;12.116;2022-08-14T14:21:20;35.60;50.10
25280;DHT22;13225;47.804;12.116;2022-08-14T14:23:46;35.60;50.20
25280;DHT22;13225;47.804;12.116;2022-08-14T14:26:14;35.80;51.70
25280;DHT22;13225;47.804;12.116;2022-08-14T14:28:46;35.90;51.70
25280;DHT22;13225;47.804;12.116;2022-08-14T14:31:25;35.90;49.80
25280;DHT22;13225;47.804;12.116;2022-08-14T14:34:00;36.00;50.90
25280;DHT22;13225;47.804;12.116;2022-08-14T14:36:28;35.50;51.10
25280;DHT22;13225;47.804;12.116;2022-08-14T14:39:04;35.80;49.10
25280;DHT22;13225;47.804;12.116;2022-08-14T14:41:32;35.90;49.40
25280;DHT22;13225;47.804;12.116;2022-08-14T14:43:59;35.90;50.00
25280;DHT22;13225;47.804;12.116;2022-08-14T14:46:30;36.00;46.90
25280;DHT22;13225;47.804;12.116;2022-08-14T14:48:59;36.40;45.70
25280;DHT22;13225;47.804;12.116;2022-08-14T14:51:25;36.50;47.00
25280;DHT22;13225;47.804;12.116;2022-08-14T14:53:51;36.90;47.00
25280;DHT22;13225;47.804;12.116;2022-08-14T14:56:18;37.00;48.20
25280;DHT22;13225;47.804;12.116;2022-08-14T14:58:45;36.90;48.30
25280;DHT22;13225;47.804;12.116;2022-08-14T15:01:11;37.10;48.10
25280;DHT22;13225;47.804;12.116;2022-08-14T15:03:40;37.30;46.50
25280;DHT22;13225;47.804;12.116;2022-08-14T15:06:10;36.40;48.60
25280;DHT22;13225;47.804;12.116;2022-08-14T15:08:36;36.70;49.30
25280;DHT22;13225;47.804;12.116;2022-08-14T15:11:03;37.10;49.60
25280;DHT22;13225;47.804;12.116;2022-08-14T15:13:29;37.00;48.60
25280;DHT22;13225;47.804;12.116;2022-08-14T15:15:54;37.00;48.80
25280;DHT22;13225;47.804;12.116;2022-08-14T15:18:21;37.00;48.50
25280;DHT22;13225;47.804;12.116;2022-08-14T15:20:48;37.00;48.10
25280;DHT22;13225;47.804;12.116;2022-08-14T15:23:19;36.80;47.10
25280;DHT22;13225;47.804;12.116;2022-08-14T15:25:46;36.70;47.80
25280;DHT22;13225;47.804;12.116;2022-08-14T15:28:12;36.70;47.60
25280;DHT22;13225;47.804;12.116;2022-08-14T15:30:44;36.80;48.20
25280;DHT22;13225;47.804;12.116;2022-08-14T15:33:11;36.90;48.10
25280;DHT22;13225;47.804;12.116;2022-08-14T15:35:37;36.90;46.20
25280;DHT22;13225;47.804;12.116;2022-08-14T15:38:04;37.00;46.70
25280;DHT22;13225;47.804;12.116;2022-08-14T15:40:40;37.30;45.50